N395T KISP-KSUA
Flight info
| Callsign | N395T |
|---|---|
| Flight time | N/A |
| Altitude | 20000 |
| Route | BEADS EMJAY Q167 KALDA Q97 KENLL TUXXI |
| Aircraft | PC12/L-SDFGRWY/S |
Departure
| Time | 2026-04-30 21:42 |
|---|---|
| Airport | Long Island MacArthur Airport (KISP) |
Arrival
| Time | N/A |
|---|---|
| Airport | Witham Field (KSUA) |
| Time | Latitude | Longitude | Altitude | Speed | Heading |
|---|---|---|---|---|---|
| 2026-04-30 20:42 | 40.79824 | -73.10900 | 85 ft | 0 kts | 89° |
| 2026-04-30 21:29 | 40.79815 | -73.10862 | 92 ft | 4 kts | 108° |
| 2026-04-30 21:30 | 40.79810 | -73.10840 | 89 ft | 0 kts | 101° |
| 2026-04-30 21:31 | 40.79806 | -73.10808 | 93 ft | 2 kts | 94° |
| 2026-04-30 21:31 | 40.79806 | -73.10807 | 93 ft | 0 kts | 92° |
| 2026-04-30 21:37 | 40.79805 | -73.10744 | 92 ft | 9 kts | 72° |
| 2026-04-30 21:37 | 40.79868 | -73.10721 | 92 ft | 11 kts | 1° |
| 2026-04-30 21:37 | 40.79964 | -73.10719 | 92 ft | 14 kts | 360° |
| 2026-04-30 21:37 | 40.80015 | -73.10673 | 92 ft | 10 kts | 114° |
| 2026-04-30 21:38 | 40.79963 | -73.10601 | 94 ft | 11 kts | 135° |
| 2026-04-30 21:38 | 40.79907 | -73.10527 | 95 ft | 12 kts | 135° |
| 2026-04-30 21:38 | 40.79850 | -73.10451 | 95 ft | 12 kts | 135° |
| 2026-04-30 21:38 | 40.79791 | -73.10374 | 96 ft | 12 kts | 135° |
| 2026-04-30 21:39 | 40.79753 | -73.10285 | 95 ft | 12 kts | 69° |
| 2026-04-30 21:39 | 40.79808 | -73.10207 | 98 ft | 11 kts | 44° |
| 2026-04-30 21:39 | 40.79869 | -73.10128 | 95 ft | 14 kts | 44° |
| 2026-04-30 21:39 | 40.79944 | -73.10029 | 94 ft | 16 kts | 45° |
| 2026-04-30 21:40 | 40.80022 | -73.09927 | 93 ft | 16 kts | 45° |
| 2026-04-30 21:40 | 40.80104 | -73.09817 | 94 ft | 17 kts | 44° |
| 2026-04-30 21:40 | 40.80191 | -73.09704 | 94 ft | 18 kts | 45° |
| 2026-04-30 21:40 | 40.80273 | -73.09583 | 94 ft | 18 kts | 76° |
| 2026-04-30 21:41 | 40.80213 | -73.09492 | 97 ft | 12 kts | 182° |
| 2026-04-30 21:41 | 40.80144 | -73.09560 | 98 ft | 18 kts | 224° |
| 2026-04-30 21:41 | 40.79947 | -73.09820 | 97 ft | 63 kts | 225° |
| 2026-04-30 21:41 | 40.79547 | -73.10341 | 143 ft | 91 kts | 225° |
| 2026-04-30 21:42 | 40.79063 | -73.10973 | 320 ft | 104 kts | 224° |
| 2026-04-30 21:42 | 40.78497 | -73.11700 | 524 ft | 125 kts | 225° |
| 2026-04-30 21:42 | 40.77795 | -73.12458 | 953 ft | 136 kts | 208° |
| 2026-04-30 21:42 | 40.76814 | -73.12622 | 1353 ft | 153 kts | 170° |
| 2026-04-30 21:43 | 40.75828 | -73.12004 | 1854 ft | 163 kts | 141° |
| 2026-04-30 21:43 | 40.75157 | -73.10754 | 2305 ft | 175 kts | 111° |
| 2026-04-30 21:43 | 40.74925 | -73.09139 | 2704 ft | 184 kts | 95° |
| 2026-04-30 21:43 | 40.74799 | -73.07427 | 2989 ft | 197 kts | 94° |
| 2026-04-30 21:44 | 40.74756 | -73.05532 | 3098 ft | 211 kts | 89° |
| 2026-04-30 21:44 | 40.74744 | -73.03618 | 3447 ft | 207 kts | 90° |
| 2026-04-30 21:44 | 40.74703 | -73.01734 | 3798 ft | 204 kts | 91° |
| 2026-04-30 21:44 | 40.74654 | -72.99875 | 4159 ft | 202 kts | 91° |
| 2026-04-30 21:45 | 40.74608 | -72.98034 | 4540 ft | 199 kts | 90° |
| 2026-04-30 21:45 | 40.74565 | -72.96223 | 4959 ft | 196 kts | 91° |
| 2026-04-30 21:45 | 40.74518 | -72.94441 | 5369 ft | 193 kts | 94° |
| 2026-04-30 21:45 | 40.73980 | -72.92852 | 5780 ft | 193 kts | 133° |
| 2026-04-30 21:46 | 40.72902 | -72.91850 | 6207 ft | 189 kts | 165° |
| 2026-04-30 21:46 | 40.71634 | -72.91684 | 6601 ft | 182 kts | 195° |
| 2026-04-30 21:46 | 40.70477 | -72.92274 | 6999 ft | 177 kts | 211° |
| 2026-04-30 21:46 | 40.69359 | -72.92977 | 7401 ft | 179 kts | 210° |
| 2026-04-30 21:47 | 40.68216 | -72.93636 | 7800 ft | 180 kts | 208° |
| 2026-04-30 21:47 | 40.67054 | -72.94282 | 8147 ft | 183 kts | 208° |
| 2026-04-30 21:47 | 40.65888 | -72.94930 | 8489 ft | 186 kts | 208° |
| 2026-04-30 21:47 | 40.64691 | -72.95597 | 8808 ft | 188 kts | 208° |
| 2026-04-30 21:48 | 40.63481 | -72.96271 | 9152 ft | 189 kts | 208° |
| 2026-04-30 21:48 | 40.62265 | -72.96948 | 9504 ft | 190 kts | 208° |
| 2026-04-30 21:48 | 40.61046 | -72.97626 | 9837 ft | 190 kts | 209° |
| 2026-04-30 21:48 | 40.59827 | -72.98304 | 10144 ft | 191 kts | 209° |
| 2026-04-30 21:49 | 40.58588 | -72.98994 | 10443 ft | 194 kts | 208° |
| 2026-04-30 21:49 | 40.57334 | -72.99692 | 10730 ft | 197 kts | 208° |
| 2026-04-30 21:49 | 40.56083 | -73.00386 | 11031 ft | 198 kts | 208° |
| 2026-04-30 21:49 | 40.54809 | -73.01094 | 11329 ft | 199 kts | 208° |
| 2026-04-30 21:50 | 40.53534 | -73.01800 | 11629 ft | 198 kts | 208° |
| 2026-04-30 21:50 | 40.52268 | -73.02502 | 11932 ft | 197 kts | 208° |
| 2026-04-30 21:50 | 40.51000 | -73.03206 | 12188 ft | 198 kts | 208° |
| 2026-04-30 21:50 | 40.49728 | -73.03912 | 12447 ft | 199 kts | 208° |
| 2026-04-30 21:51 | 40.48452 | -73.04619 | 12709 ft | 199 kts | 208° |
| 2026-04-30 21:51 | 40.47178 | -73.05324 | 12971 ft | 199 kts | 208° |
| 2026-04-30 21:51 | 40.45904 | -73.06030 | 13235 ft | 198 kts | 208° |
| 2026-04-30 21:51 | 40.44631 | -73.06734 | 13509 ft | 198 kts | 208° |
| 2026-04-30 21:52 | 40.43362 | -73.07436 | 13757 ft | 198 kts | 208° |
| 2026-04-30 21:52 | 40.42093 | -73.08138 | 13997 ft | 198 kts | 208° |
| 2026-04-30 21:52 | 40.40840 | -73.08831 | 14231 ft | 197 kts | 208° |
| 2026-04-30 21:52 | 40.39574 | -73.09530 | 14470 ft | 197 kts | 208° |
| 2026-04-30 21:53 | 40.38316 | -73.10225 | 14707 ft | 196 kts | 209° |
| 2026-04-30 21:53 | 40.37053 | -73.10922 | 14957 ft | 196 kts | 209° |
| 2026-04-30 21:53 | 40.35795 | -73.11616 | 15207 ft | 196 kts | 209° |
| 2026-04-30 21:53 | 40.34547 | -73.12305 | 15450 ft | 195 kts | 209° |
| 2026-04-30 21:54 | 40.33290 | -73.12998 | 15701 ft | 195 kts | 209° |
| 2026-04-30 21:54 | 40.32038 | -73.13688 | 15951 ft | 195 kts | 210° |
| 2026-04-30 21:54 | 40.30804 | -73.14368 | 16203 ft | 195 kts | 210° |
| 2026-04-30 21:54 | 40.29540 | -73.15064 | 16465 ft | 194 kts | 210° |
| 2026-04-30 21:55 | 40.28307 | -73.15742 | 16720 ft | 194 kts | 210° |
| 2026-04-30 21:55 | 40.27064 | -73.16427 | 16980 ft | 194 kts | 210° |
| 2026-04-30 21:55 | 40.25818 | -73.17112 | 17244 ft | 194 kts | 210° |
| 2026-04-30 21:55 | 40.24577 | -73.17794 | 17508 ft | 193 kts | 210° |
| 2026-04-30 21:56 | 40.23334 | -73.18477 | 17774 ft | 193 kts | 210° |
| 2026-04-30 21:56 | 40.22097 | -73.19157 | 18042 ft | 193 kts | 210° |
| 2026-04-30 21:56 | 40.20855 | -73.19840 | 18231 ft | 195 kts | 210° |
| 2026-04-30 21:56 | 40.19601 | -73.20530 | 18362 ft | 198 kts | 210° |
| 2026-04-30 21:57 | 40.18317 | -73.21235 | 18482 ft | 201 kts | 210° |
| 2026-04-30 21:57 | 40.17021 | -73.21946 | 18598 ft | 203 kts | 210° |
| 2026-04-30 21:57 | 40.15712 | -73.22663 | 18721 ft | 205 kts | 210° |
| 2026-04-30 21:57 | 40.14395 | -73.23385 | 18834 ft | 206 kts | 210° |
| 2026-04-30 21:58 | 40.13068 | -73.24112 | 18956 ft | 207 kts | 210° |
| 2026-04-30 21:58 | 40.11738 | -73.24840 | 19075 ft | 208 kts | 210° |
| 2026-04-30 21:58 | 40.10419 | -73.25562 | 19193 ft | 208 kts | 210° |
| 2026-04-30 21:58 | 40.09126 | -73.26373 | 19307 ft | 202 kts | 221° |
| 2026-04-30 21:59 | 40.08056 | -73.27543 | 19434 ft | 200 kts | 225° |
| 2026-04-30 21:59 | 40.07007 | -73.28741 | 19555 ft | 201 kts | 225° |
| 2026-04-30 21:59 | 40.05950 | -73.29931 | 19682 ft | 201 kts | 225° |
| 2026-04-30 22:00 | 40.03810 | -73.32328 | 19830 ft | 206 kts | 225° |
| 2026-04-30 22:00 | 40.01595 | -73.34810 | 19833 ft | 213 kts | 225° |
| 2026-04-30 22:00 | 40.00462 | -73.36078 | 19832 ft | 216 kts | 225° |
| 2026-04-30 22:01 | 39.99331 | -73.37342 | 19832 ft | 217 kts | 225° |
| 2026-04-30 22:01 | 39.98177 | -73.38632 | 19836 ft | 219 kts | 225° |
| 2026-04-30 22:01 | 39.97018 | -73.39928 | 19834 ft | 220 kts | 225° |
| 2026-04-30 22:01 | 39.95853 | -73.41230 | 19845 ft | 221 kts | 225° |
| 2026-04-30 22:02 | 39.94686 | -73.42533 | 19844 ft | 221 kts | 225° |
| 2026-04-30 22:02 | 39.93513 | -73.43842 | 19843 ft | 222 kts | 225° |
| 2026-04-30 22:02 | 39.92733 | -73.44712 | 19845 ft | 222 kts | 225° |
| 2026-04-30 22:02 | 39.91559 | -73.46021 | 19845 ft | 222 kts | 225° |
| 2026-04-30 22:03 | 39.90385 | -73.47329 | 19842 ft | 222 kts | 225° |
| 2026-04-30 22:03 | 39.89207 | -73.48642 | 19845 ft | 223 kts | 225° |
| 2026-04-30 22:03 | 39.88022 | -73.49962 | 19845 ft | 223 kts | 225° |
| 2026-04-30 22:03 | 39.86858 | -73.51258 | 19838 ft | 223 kts | 225° |
| 2026-04-30 22:04 | 39.85676 | -73.52573 | 19838 ft | 223 kts | 225° |
| 2026-04-30 22:04 | 39.84495 | -73.53886 | 19840 ft | 223 kts | 225° |
| 2026-04-30 22:04 | 39.82130 | -73.56522 | 19833 ft | 224 kts | 225° |
| 2026-04-30 22:05 | 39.80948 | -73.57839 | 19832 ft | 224 kts | 225° |
| 2026-04-30 22:05 | 39.79772 | -73.59148 | 19834 ft | 222 kts | 225° |
| 2026-04-30 22:05 | 39.78606 | -73.60444 | 19832 ft | 220 kts | 225° |
| 2026-04-30 22:05 | 39.77446 | -73.61734 | 19834 ft | 217 kts | 225° |
| 2026-04-30 22:06 | 39.76314 | -73.62993 | 19833 ft | 216 kts | 225° |
| 2026-04-30 22:06 | 39.74035 | -73.65526 | 19833 ft | 213 kts | 225° |
| 2026-04-30 22:06 | 39.72926 | -73.66757 | 19833 ft | 211 kts | 225° |
| 2026-04-30 22:07 | 39.71810 | -73.67995 | 19833 ft | 210 kts | 225° |
| 2026-04-30 22:07 | 39.70698 | -73.69229 | 19833 ft | 210 kts | 225° |
| 2026-04-30 22:07 | 39.69589 | -73.70458 | 19831 ft | 209 kts | 225° |
| 2026-04-30 22:07 | 39.68487 | -73.71680 | 19833 ft | 207 kts | 225° |
| 2026-04-30 22:08 | 39.67391 | -73.72893 | 19831 ft | 206 kts | 225° |
| 2026-04-30 22:08 | 39.66299 | -73.74103 | 19830 ft | 206 kts | 225° |
| 2026-04-30 22:08 | 39.65213 | -73.75305 | 19828 ft | 205 kts | 226° |
| 2026-04-30 22:08 | 39.64125 | -73.76509 | 19831 ft | 205 kts | 225° |
| 2026-04-30 22:09 | 39.63038 | -73.77711 | 19831 ft | 205 kts | 225° |
| 2026-04-30 22:09 | 39.61956 | -73.78907 | 19830 ft | 205 kts | 225° |
| 2026-04-30 22:09 | 39.60886 | -73.80090 | 19830 ft | 204 kts | 226° |
| 2026-04-30 22:09 | 39.59804 | -73.81284 | 19832 ft | 204 kts | 226° |
| 2026-04-30 22:10 | 39.58718 | -73.82483 | 19833 ft | 204 kts | 225° |
| 2026-04-30 22:10 | 39.57635 | -73.83678 | 19833 ft | 204 kts | 225° |
| 2026-04-30 22:10 | 39.56552 | -73.84873 | 19830 ft | 204 kts | 226° |
| 2026-04-30 22:10 | 39.55469 | -73.86067 | 19830 ft | 204 kts | 226° |
| 2026-04-30 22:11 | 39.53307 | -73.88449 | 19831 ft | 204 kts | 226° |
| 2026-04-30 22:11 | 39.52223 | -73.89643 | 19825 ft | 204 kts | 225° |
| 2026-04-30 22:11 | 39.51155 | -73.90818 | 19829 ft | 204 kts | 226° |
| 2026-04-30 22:12 | 39.50069 | -73.92013 | 19823 ft | 204 kts | 226° |
| 2026-04-30 22:12 | 39.48982 | -73.93209 | 19827 ft | 204 kts | 226° |
| 2026-04-30 22:12 | 39.47898 | -73.94400 | 19825 ft | 204 kts | 226° |
| 2026-04-30 22:12 | 39.46812 | -73.95593 | 19827 ft | 204 kts | 226° |
| 2026-04-30 22:13 | 39.45728 | -73.96784 | 19828 ft | 204 kts | 226° |
| 2026-04-30 22:13 | 39.44643 | -73.97976 | 19826 ft | 205 kts | 226° |
| 2026-04-30 22:13 | 39.43556 | -73.99168 | 19824 ft | 205 kts | 226° |
| 2026-04-30 22:13 | 39.42482 | -74.00346 | 19828 ft | 204 kts | 226° |
| 2026-04-30 22:14 | 39.41398 | -74.01536 | 19826 ft | 205 kts | 226° |
| 2026-04-30 22:14 | 39.40311 | -74.02726 | 19825 ft | 205 kts | 226° |
| 2026-04-30 22:14 | 39.39223 | -74.03916 | 19826 ft | 205 kts | 226° |
| 2026-04-30 22:14 | 39.38133 | -74.05108 | 19827 ft | 205 kts | 226° |
| 2026-04-30 22:15 | 39.37045 | -74.06297 | 19823 ft | 205 kts | 226° |
| 2026-04-30 22:15 | 39.35958 | -74.07486 | 19824 ft | 205 kts | 226° |
| 2026-04-30 22:15 | 39.34866 | -74.08679 | 19824 ft | 205 kts | 226° |
| 2026-04-30 22:15 | 39.33777 | -74.09868 | 19828 ft | 205 kts | 225° |
| 2026-04-30 22:16 | 39.32688 | -74.11057 | 19827 ft | 205 kts | 226° |
| 2026-04-30 22:16 | 39.31613 | -74.12230 | 19824 ft | 205 kts | 226° |
| 2026-04-30 22:17 | 39.28337 | -74.15802 | 19829 ft | 207 kts | 226° |
| 2026-04-30 22:17 | 39.27234 | -74.17003 | 19830 ft | 208 kts | 226° |
| 2026-04-30 22:17 | 39.25020 | -74.19413 | 19831 ft | 209 kts | 225° |
| 2026-04-30 22:18 | 39.23906 | -74.20624 | 19828 ft | 209 kts | 225° |
| 2026-04-30 22:18 | 39.21676 | -74.23049 | 19828 ft | 210 kts | 225° |
| 2026-04-30 22:19 | 39.19446 | -74.25470 | 19828 ft | 210 kts | 225° |
| 2026-04-30 22:19 | 39.18329 | -74.26683 | 19827 ft | 210 kts | 225° |
| 2026-04-30 22:19 | 39.16094 | -74.29107 | 19824 ft | 210 kts | 225° |
| 2026-04-30 22:20 | 39.14992 | -74.30302 | 19832 ft | 210 kts | 225° |
| 2026-04-30 22:20 | 39.12752 | -74.32729 | 19829 ft | 210 kts | 225° |
| 2026-04-30 22:20 | 39.11636 | -74.33937 | 19838 ft | 210 kts | 225° |
| 2026-04-30 22:21 | 39.10518 | -74.35147 | 19834 ft | 210 kts | 225° |
| 2026-04-30 22:21 | 39.09396 | -74.36361 | 19835 ft | 210 kts | 225° |
| 2026-04-30 22:21 | 39.08281 | -74.37567 | 19836 ft | 210 kts | 225° |
| 2026-04-30 22:21 | 39.07159 | -74.38780 | 19831 ft | 210 kts | 225° |
| 2026-04-30 22:22 | 39.06037 | -74.39992 | 19828 ft | 210 kts | 225° |
| 2026-04-30 22:22 | 39.04916 | -74.41203 | 19829 ft | 210 kts | 225° |
| 2026-04-30 22:22 | 39.03808 | -74.42398 | 19827 ft | 210 kts | 225° |
| 2026-04-30 22:22 | 39.02674 | -74.43622 | 19832 ft | 210 kts | 225° |
| 2026-04-30 22:23 | 39.01554 | -74.44830 | 19830 ft | 210 kts | 226° |
| 2026-04-30 22:23 | 39.00447 | -74.46024 | 19830 ft | 210 kts | 226° |
| 2026-04-30 22:23 | 38.99327 | -74.47231 | 19831 ft | 210 kts | 225° |
| 2026-04-30 22:23 | 38.98205 | -74.48439 | 19835 ft | 210 kts | 226° |
| 2026-04-30 22:24 | 38.97083 | -74.49646 | 19835 ft | 210 kts | 225° |
| 2026-04-30 22:24 | 38.95957 | -74.50858 | 19834 ft | 211 kts | 226° |
| 2026-04-30 22:24 | 38.94831 | -74.52070 | 19833 ft | 211 kts | 226° |
| 2026-04-30 22:24 | 38.93733 | -74.53305 | 19834 ft | 207 kts | 229° |
| 2026-04-30 22:25 | 38.92672 | -74.54568 | 19835 ft | 209 kts | 227° |
| 2026-04-30 22:25 | 38.91585 | -74.55806 | 19839 ft | 209 kts | 227° |
| 2026-04-30 22:25 | 38.90505 | -74.57061 | 19842 ft | 209 kts | 228° |
| 2026-04-30 22:25 | 38.89447 | -74.58306 | 19837 ft | 209 kts | 228° |
| 2026-04-30 22:26 | 38.87283 | -74.60843 | 19836 ft | 210 kts | 228° |
| 2026-04-30 22:26 | 38.86205 | -74.62105 | 19839 ft | 210 kts | 228° |
| 2026-04-30 22:26 | 38.85125 | -74.63368 | 19841 ft | 210 kts | 228° |
| 2026-04-30 22:27 | 38.84060 | -74.64614 | 19839 ft | 210 kts | 228° |
| 2026-04-30 22:27 | 38.82978 | -74.65879 | 19844 ft | 210 kts | 228° |
| 2026-04-30 22:27 | 38.80814 | -74.68406 | 19844 ft | 210 kts | 228° |
| 2026-04-30 22:28 | 38.78648 | -74.70935 | 19842 ft | 210 kts | 228° |
| 2026-04-30 22:28 | 38.77565 | -74.72198 | 19844 ft | 211 kts | 228° |
| 2026-04-30 22:29 | 38.74258 | -74.75911 | 19852 ft | 213 kts | 225° |
| 2026-04-30 22:29 | 38.73114 | -74.77119 | 19850 ft | 213 kts | 226° |
| 2026-04-30 22:30 | 38.68493 | -74.81966 | 19848 ft | 216 kts | 225° |
| 2026-04-30 22:31 | 38.65014 | -74.85591 | 19853 ft | 216 kts | 226° |
| 2026-04-30 22:32 | 38.61505 | -74.89240 | 19854 ft | 217 kts | 226° |
| 2026-04-30 22:32 | 38.59161 | -74.91675 | 19856 ft | 217 kts | 226° |
| 2026-04-30 22:33 | 38.55637 | -74.95333 | 19860 ft | 218 kts | 226° |
| 2026-04-30 22:33 | 38.53300 | -74.97755 | 19862 ft | 218 kts | 226° |
| 2026-04-30 22:34 | 38.49895 | -75.01528 | 19863 ft | 216 kts | 227° |
| 2026-04-30 22:35 | 38.47626 | -75.04065 | 19865 ft | 217 kts | 228° |
| 2026-04-30 22:36 | 38.42829 | -75.08777 | 19869 ft | 219 kts | 224° |
| 2026-04-30 22:36 | 38.41604 | -75.09940 | 19867 ft | 219 kts | 224° |
| 2026-04-30 22:37 | 38.37924 | -75.13437 | 19866 ft | 220 kts | 224° |
| 2026-04-30 22:37 | 38.36704 | -75.14596 | 19866 ft | 220 kts | 224° |
| 2026-04-30 22:37 | 38.34238 | -75.16937 | 19868 ft | 220 kts | 224° |
| 2026-04-30 22:38 | 38.31774 | -75.19274 | 19865 ft | 221 kts | 224° |
| 2026-04-30 22:38 | 38.29325 | -75.21595 | 19869 ft | 221 kts | 224° |
| 2026-04-30 22:39 | 38.28087 | -75.22767 | 19869 ft | 221 kts | 224° |
| 2026-04-30 22:39 | 38.24380 | -75.26275 | 19868 ft | 221 kts | 224° |
| 2026-04-30 22:40 | 38.20673 | -75.29778 | 19864 ft | 221 kts | 224° |
| 2026-04-30 22:41 | 38.16960 | -75.33282 | 19860 ft | 221 kts | 224° |
| 2026-04-30 22:41 | 38.14485 | -75.35615 | 19865 ft | 221 kts | 224° |
| 2026-04-30 22:42 | 38.09549 | -75.40262 | 19865 ft | 221 kts | 224° |
| 2026-04-30 22:43 | 38.07075 | -75.42589 | 19866 ft | 221 kts | 224° |
| 2026-04-30 22:43 | 38.04558 | -75.44865 | 19867 ft | 222 kts | 221° |
| 2026-04-30 22:44 | 38.02044 | -75.47102 | 19869 ft | 221 kts | 223° |
| 2026-04-30 22:45 | 37.96974 | -75.51526 | 19871 ft | 222 kts | 222° |
| 2026-04-30 22:45 | 37.94426 | -75.53747 | 19870 ft | 222 kts | 222° |
| 2026-04-30 22:46 | 37.91876 | -75.55967 | 19868 ft | 223 kts | 222° |
| 2026-04-30 22:47 | 37.86749 | -75.60424 | 19865 ft | 222 kts | 222° |
| 2026-04-30 22:47 | 37.84213 | -75.62620 | 19867 ft | 222 kts | 221° |
| 2026-04-30 22:48 | 37.81550 | -75.64621 | 19864 ft | 223 kts | 220° |
| 2026-04-30 22:49 | 37.77540 | -75.67659 | 19865 ft | 224 kts | 219° |
| 2026-04-30 22:49 | 37.73974 | -75.70343 | 19865 ft | 224 kts | 219° |
| 2026-04-30 22:50 | 37.68583 | -75.74394 | 19870 ft | 225 kts | 219° |
| 2026-04-30 22:51 | 37.65887 | -75.76417 | 19870 ft | 225 kts | 219° |
| 2026-04-30 22:51 | 37.63189 | -75.78441 | 19868 ft | 226 kts | 219° |
| 2026-04-30 22:52 | 37.61836 | -75.79455 | 19870 ft | 226 kts | 219° |
| 2026-04-30 22:52 | 37.59151 | -75.81466 | 19867 ft | 226 kts | 219° |
| 2026-04-30 22:53 | 37.56445 | -75.83492 | 19872 ft | 227 kts | 219° |
| 2026-04-30 22:53 | 37.53723 | -75.85526 | 19871 ft | 228 kts | 219° |
| 2026-04-30 22:53 | 37.52437 | -75.86635 | 19870 ft | 222 kts | 224° |
| 2026-04-30 22:54 | 37.49890 | -75.88880 | 19871 ft | 223 kts | 223° |
| 2026-04-30 22:55 | 37.46079 | -75.92268 | 19871 ft | 224 kts | 224° |
| 2026-04-30 22:55 | 37.43552 | -75.94510 | 19866 ft | 224 kts | 224° |
| 2026-04-30 22:56 | 37.40996 | -75.96777 | 19872 ft | 225 kts | 224° |
| 2026-04-30 22:56 | 37.37158 | -76.00176 | 19874 ft | 224 kts | 224° |
| 2026-04-30 22:57 | 37.34608 | -76.02432 | 19872 ft | 224 kts | 224° |
| 2026-04-30 22:57 | 37.32052 | -76.04692 | 19874 ft | 224 kts | 224° |
| 2026-04-30 22:58 | 37.29510 | -76.06938 | 19870 ft | 226 kts | 224° |
| 2026-04-30 22:59 | 37.25666 | -76.10329 | 19865 ft | 225 kts | 224° |
| 2026-04-30 22:59 | 37.21825 | -76.13713 | 19860 ft | 224 kts | 224° |